sensor_id;sensor_type;location;lat;lon;timestamp;P1;durP1;ratioP1;P2;durP2;ratioP2
20855;SDS011;10588;49.542;8.444;2022-07-06T00:01:17;2.13;;;1.10;;
20855;SDS011;10588;49.542;8.444;2022-07-06T00:03:44;2.35;;;1.00;;
20855;SDS011;10588;49.542;8.444;2022-07-06T00:06:09;2.25;;;1.10;;
20855;SDS011;10588;49.542;8.444;2022-07-06T00:08:35;4.13;;;1.08;;
20855;SDS011;10588;49.542;8.444;2022-07-06T00:11:01;1.88;;;1.10;;
20855;SDS011;10588;49.542;8.444;2022-07-06T00:13:27;2.53;;;1.13;;
20855;SDS011;10588;49.542;8.444;2022-07-06T00:15:52;3.65;;;1.27;;
20855;SDS011;10588;49.542;8.444;2022-07-06T00:18:19;4.10;;;1.10;;
20855;SDS011;10588;49.542;8.444;2022-07-06T00:20:44;1.90;;;1.20;;
20855;SDS011;10588;49.542;8.444;2022-07-06T00:23:10;3.80;;;1.25;;
20855;SDS011;10588;49.542;8.444;2022-07-06T00:25:35;3.75;;;1.08;;
20855;SDS011;10588;49.542;8.444;2022-07-06T00:28:01;2.60;;;1.02;;
20855;SDS011;10588;49.542;8.444;2022-07-06T00:30:27;6.97;;;1.30;;
20855;SDS011;10588;49.542;8.444;2022-07-06T00:32:53;1.73;;;1.08;;
20855;SDS011;10588;49.542;8.444;2022-07-06T00:35:19;4.72;;;1.08;;
20855;SDS011;10588;49.542;8.444;2022-07-06T00:37:44;3.28;;;1.05;;
20855;SDS011;10588;49.542;8.444;2022-07-06T00:40:10;2.67;;;1.20;;
20855;SDS011;10588;49.542;8.444;2022-07-06T00:42:42;3.53;;;1.10;;
20855;SDS011;10588;49.542;8.444;2022-07-06T00:45:09;3.60;;;1.15;;
20855;SDS011;10588;49.542;8.444;2022-07-06T00:47:36;1.98;;;1.00;;
20855;SDS011;10588;49.542;8.444;2022-07-06T00:50:06;2.35;;;1.17;;
20855;SDS011;10588;49.542;8.444;2022-07-06T00:52:48;2.03;;;1.20;;
20855;SDS011;10588;49.542;8.444;2022-07-06T00:55:22;3.05;;;1.00;;
20855;SDS011;10588;49.542;8.444;2022-07-06T00:57:49;2.30;;;1.08;;
20855;SDS011;10588;49.542;8.444;2022-07-06T01:00:16;2.10;;;1.20;;
20855;SDS011;10588;49.542;8.444;2022-07-06T01:02:44;2.30;;;1.30;;
20855;SDS011;10588;49.542;8.444;2022-07-06T01:05:10;3.13;;;1.52;;
20855;SDS011;10588;49.542;8.444;2022-07-06T01:07:39;2.10;;;1.02;;
20855;SDS011;10588;49.542;8.444;2022-07-06T01:10:07;1.60;;;1.05;;
20855;SDS011;10588;49.542;8.444;2022-07-06T01:12:34;1.70;;;1.15;;
20855;SDS011;10588;49.542;8.444;2022-07-06T01:15:02;1.23;;;1.00;;
20855;SDS011;10588;49.542;8.444;2022-07-06T01:17:28;1.98;;;1.13;;
20855;SDS011;10588;49.542;8.444;2022-07-06T01:19:55;1.70;;;1.30;;
20855;SDS011;10588;49.542;8.444;2022-07-06T01:22:20;4.90;;;1.30;;
20855;SDS011;10588;49.542;8.444;2022-07-06T01:24:46;1.25;;;1.10;;
20855;SDS011;10588;49.542;8.444;2022-07-06T01:27:11;1.77;;;1.13;;
20855;SDS011;10588;49.542;8.444;2022-07-06T01:29:37;1.83;;;1.40;;
20855;SDS011;10588;49.542;8.444;2022-07-06T01:32:03;2.17;;;1.38;;
20855;SDS011;10588;49.542;8.444;2022-07-06T01:34:29;3.58;;;1.40;;
20855;SDS011;10588;49.542;8.444;2022-07-06T01:36:54;2.13;;;1.05;;
20855;SDS011;10588;49.542;8.444;2022-07-06T01:39:20;4.30;;;1.17;;
20855;SDS011;10588;49.542;8.444;2022-07-06T01:41:46;5.18;;;1.30;;
20855;SDS011;10588;49.542;8.444;2022-07-06T01:44:12;1.42;;;1.05;;
20855;SDS011;10588;49.542;8.444;2022-07-06T01:46:37;3.40;;;1.17;;
20855;SDS011;10588;49.542;8.444;2022-07-06T01:49:03;3.78;;;1.17;;
20855;SDS011;10588;49.542;8.444;2022-07-06T01:51:30;4.80;;;1.08;;
20855;SDS011;10588;49.542;8.444;2022-07-06T01:53:56;2.92;;;1.08;;
20855;SDS011;10588;49.542;8.444;2022-07-06T01:56:22;1.92;;;0.98;;
20855;SDS011;10588;49.542;8.444;2022-07-06T01:58:48;3.20;;;1.10;;
20855;SDS011;10588;49.542;8.444;2022-07-06T02:01:15;2.15;;;1.02;;
20855;SDS011;10588;49.542;8.444;2022-07-06T02:03:43;2.35;;;1.20;;
20855;SDS011;10588;49.542;8.444;2022-07-06T02:06:09;2.40;;;1.00;;
20855;SDS011;10588;49.542;8.444;2022-07-06T02:08:37;1.40;;;1.00;;
20855;SDS011;10588;49.542;8.444;2022-07-06T02:11:04;1.85;;;1.00;;
20855;SDS011;10588;49.542;8.444;2022-07-06T02:13:30;1.83;;;0.98;;
20855;SDS011;10588;49.542;8.444;2022-07-06T02:15:56;3.03;;;0.95;;
20855;SDS011;10588;49.542;8.444;2022-07-06T02:18:21;1.42;;;0.95;;
20855;SDS011;10588;49.542;8.444;2022-07-06T02:20:47;1.20;;;0.85;;
20855;SDS011;10588;49.542;8.444;2022-07-06T02:23:12;1.58;;;0.80;;
20855;SDS011;10588;49.542;8.444;2022-07-06T02:25:38;2.88;;;1.05;;
20855;SDS011;10588;49.542;8.444;2022-07-06T02:28:05;3.70;;;0.98;;
20855;SDS011;10588;49.542;8.444;2022-07-06T02:30:30;1.83;;;1.00;;
20855;SDS011;10588;49.542;8.444;2022-07-06T02:32:56;4.55;;;1.00;;
20855;SDS011;10588;49.542;8.444;2022-07-06T02:35:22;3.65;;;0.90;;
20855;SDS011;10588;49.542;8.444;2022-07-06T02:37:47;4.07;;;0.90;;
20855;SDS011;10588;49.542;8.444;2022-07-06T02:40:13;1.27;;;0.77;;
20855;SDS011;10588;49.542;8.444;2022-07-06T02:42:38;1.50;;;0.73;;
20855;SDS011;10588;49.542;8.444;2022-07-06T02:45:04;1.30;;;0.77;;
20855;SDS011;10588;49.542;8.444;2022-07-06T02:47:30;2.38;;;0.88;;
20855;SDS011;10588;49.542;8.444;2022-07-06T02:49:56;2.03;;;0.90;;
20855;SDS011;10588;49.542;8.444;2022-07-06T02:52:22;1.25;;;0.77;;
20855;SDS011;10588;49.542;8.444;2022-07-06T02:54:47;1.15;;;0.88;;
20855;SDS011;10588;49.542;8.444;2022-07-06T02:57:14;2.45;;;0.82;;
20855;SDS011;10588;49.542;8.444;2022-07-06T02:59:40;2.53;;;1.00;;
20855;SDS011;10588;49.542;8.444;2022-07-06T03:02:05;3.67;;;0.82;;
20855;SDS011;10588;49.542;8.444;2022-07-06T03:04:32;2.33;;;0.80;;
20855;SDS011;10588;49.542;8.444;2022-07-06T03:06:57;1.73;;;0.90;;
20855;SDS011;10588;49.542;8.444;2022-07-06T03:09:23;1.30;;;0.88;;
20855;SDS011;10588;49.542;8.444;2022-07-06T03:11:49;2.28;;;0.82;;
20855;SDS011;10588;49.542;8.444;2022-07-06T03:14:14;1.25;;;0.77;;
20855;SDS011;10588;49.542;8.444;2022-07-06T03:16:40;2.88;;;0.80;;
20855;SDS011;10588;49.542;8.444;2022-07-06T03:19:06;2.72;;;1.00;;
20855;SDS011;10588;49.542;8.444;2022-07-06T03:21:32;4.20;;;0.85;;
20855;SDS011;10588;49.542;8.444;2022-07-06T03:23:57;3.75;;;0.82;;
20855;SDS011;10588;49.542;8.444;2022-07-06T03:26:23;2.40;;;0.70;;
20855;SDS011;10588;49.542;8.444;2022-07-06T03:28:49;1.23;;;0.80;;
20855;SDS011;10588;49.542;8.444;2022-07-06T03:31:14;1.48;;;0.82;;
20855;SDS011;10588;49.542;8.444;2022-07-06T03:33:40;4.10;;;0.90;;
20855;SDS011;10588;49.542;8.444;2022-07-06T03:36:05;2.65;;;0.80;;
20855;SDS011;10588;49.542;8.444;2022-07-06T03:38:32;3.17;;;0.80;;
20855;SDS011;10588;49.542;8.444;2022-07-06T03:40:58;3.65;;;0.98;;
20855;SDS011;10588;49.542;8.444;2022-07-06T03:43:24;2.40;;;0.82;;
20855;SDS011;10588;49.542;8.444;2022-07-06T03:45:49;3.72;;;0.70;;
20855;SDS011;10588;49.542;8.444;2022-07-06T03:48:15;1.65;;;0.70;;
20855;SDS011;10588;49.542;8.444;2022-07-06T03:50:40;2.25;;;0.90;;
20855;SDS011;10588;49.542;8.444;2022-07-06T03:53:06;2.20;;;0.80;;
20855;SDS011;10588;49.542;8.444;2022-07-06T03:55:31;1.77;;;0.80;;
20855;SDS011;10588;49.542;8.444;2022-07-06T03:57:57;5.22;;;1.00;;
20855;SDS011;10588;49.542;8.444;2022-07-06T04:00:22;2.67;;;0.88;;
20855;SDS011;10588;49.542;8.444;2022-07-06T04:02:48;1.98;;;0.90;;
20855;SDS011;10588;49.542;8.444;2022-07-06T04:05:13;1.23;;;0.80;;
20855;SDS011;10588;49.542;8.444;2022-07-06T04:07:40;2.70;;;1.00;;
20855;SDS011;10588;49.542;8.444;2022-07-06T04:10:06;2.47;;;1.08;;
20855;SDS011;10588;49.542;8.444;2022-07-06T04:12:32;2.40;;;1.10;;
20855;SDS011;10588;49.542;8.444;2022-07-06T04:15:05;1.23;;;0.93;;
20855;SDS011;10588;49.542;8.444;2022-07-06T04:17:31;1.40;;;0.77;;
20855;SDS011;10588;49.542;8.444;2022-07-06T04:20:15;3.08;;;1.00;;
20855;SDS011;10588;49.542;8.444;2022-07-06T04:22:41;2.45;;;1.00;;
20855;SDS011;10588;49.542;8.444;2022-07-06T04:25:06;1.42;;;0.90;;
20855;SDS011;10588;49.542;8.444;2022-07-06T04:27:33;1.67;;;0.98;;
20855;SDS011;10588;49.542;8.444;2022-07-06T04:29:59;1.05;;;0.75;;
20855;SDS011;10588;49.542;8.444;2022-07-06T04:32:24;2.10;;;0.90;;
20855;SDS011;10588;49.542;8.444;2022-07-06T04:34:50;2.30;;;1.10;;
20855;SDS011;10588;49.542;8.444;2022-07-06T04:37:16;1.45;;;1.05;;
20855;SDS011;10588;49.542;8.444;2022-07-06T04:39:41;1.50;;;0.80;;
20855;SDS011;10588;49.542;8.444;2022-07-06T04:42:07;1.30;;;0.80;;
20855;SDS011;10588;49.542;8.444;2022-07-06T04:44:32;4.57;;;0.90;;
20855;SDS011;10588;49.542;8.444;2022-07-06T04:46:58;2.17;;;1.15;;
20855;SDS011;10588;49.542;8.444;2022-07-06T04:49:23;2.75;;;1.10;;
20855;SDS011;10588;49.542;8.444;2022-07-06T04:51:49;3.90;;;1.30;;
20855;SDS011;10588;49.542;8.444;2022-07-06T04:54:14;3.40;;;1.17;;
20855;SDS011;10588;49.542;8.444;2022-07-06T04:56:40;3.10;;;1.05;;
20855;SDS011;10588;49.542;8.444;2022-07-06T04:59:05;4.03;;;1.15;;
20855;SDS011;10588;49.542;8.444;2022-07-06T05:01:31;3.05;;;1.05;;
20855;SDS011;10588;49.542;8.444;2022-07-06T05:03:56;2.97;;;0.93;;
20855;SDS011;10588;49.542;8.444;2022-07-06T05:06:22;2.22;;;1.08;;
20855;SDS011;10588;49.542;8.444;2022-07-06T05:08:48;2.78;;;1.02;;
20855;SDS011;10588;49.542;8.444;2022-07-06T05:11:13;2.95;;;1.17;;
20855;SDS011;10588;49.542;8.444;2022-07-06T05:13:39;3.20;;;1.05;;
20855;SDS011;10588;49.542;8.444;2022-07-06T05:16:04;2.90;;;1.00;;
20855;SDS011;10588;49.542;8.444;2022-07-06T05:18:30;3.97;;;1.40;;
20855;SDS011;10588;49.542;8.444;2022-07-06T05:20:56;4.00;;;1.35;;
20855;SDS011;10588;49.542;8.444;2022-07-06T05:23:21;3.88;;;0.95;;
20855;SDS011;10588;49.542;8.444;2022-07-06T05:25:47;2.80;;;1.15;;
20855;SDS011;10588;49.542;8.444;2022-07-06T05:28:12;3.30;;;1.13;;
20855;SDS011;10588;49.542;8.444;2022-07-06T05:30:38;5.88;;;1.67;;
20855;SDS011;10588;49.542;8.444;2022-07-06T05:33:04;4.22;;;1.58;;
20855;SDS011;10588;49.542;8.444;2022-07-06T05:35:29;3.15;;;0.85;;
20855;SDS011;10588;49.542;8.444;2022-07-06T05:37:55;1.70;;;1.00;;
20855;SDS011;10588;49.542;8.444;2022-07-06T05:40:20;3.40;;;0.98;;
20855;SDS011;10588;49.542;8.444;2022-07-06T05:42:46;4.45;;;1.13;;
20855;SDS011;10588;49.542;8.444;2022-07-06T05:45:11;1.80;;;0.77;;
20855;SDS011;10588;49.542;8.444;2022-07-06T05:47:38;2.25;;;1.05;;
20855;SDS011;10588;49.542;8.444;2022-07-06T05:50:22;2.90;;;1.25;;
20855;SDS011;10588;49.542;8.444;2022-07-06T05:52:55;1.65;;;0.90;;
20855;SDS011;10588;49.542;8.444;2022-07-06T05:55:22;2.78;;;1.10;;
20855;SDS011;10588;49.542;8.444;2022-07-06T05:57:48;2.13;;;1.10;;
20855;SDS011;10588;49.542;8.444;2022-07-06T06:00:15;2.38;;;1.13;;
20855;SDS011;10588;49.542;8.444;2022-07-06T06:02:41;4.78;;;1.40;;
20855;SDS011;10588;49.542;8.444;2022-07-06T06:05:08;2.85;;;1.10;;
20855;SDS011;10588;49.542;8.444;2022-07-06T06:07:35;3.67;;;1.23;;
20855;SDS011;10588;49.542;8.444;2022-07-06T06:10:06;3.78;;;1.30;;
20855;SDS011;10588;49.542;8.444;2022-07-06T06:12:33;2.65;;;1.20;;
20855;SDS011;10588;49.542;8.444;2022-07-06T06:14:59;3.85;;;1.35;;
20855;SDS011;10588;49.542;8.444;2022-07-06T06:17:26;3.47;;;1.45;;
20855;SDS011;10588;49.542;8.444;2022-07-06T06:19:51;2.97;;;1.42;;
20855;SDS011;10588;49.542;8.444;2022-07-06T06:22:17;4.25;;;1.33;;
20855;SDS011;10588;49.542;8.444;2022-07-06T06:24:42;2.97;;;1.50;;
20855;SDS011;10588;49.542;8.444;2022-07-06T06:27:08;3.35;;;1.23;;
20855;SDS011;10588;49.542;8.444;2022-07-06T06:29:34;2.90;;;1.40;;
20855;SDS011;10588;49.542;8.444;2022-07-06T06:31:59;4.38;;;1.25;;
20855;SDS011;10588;49.542;8.444;2022-07-06T06:34:25;5.00;;;1.23;;
20855;SDS011;10588;49.542;8.444;2022-07-06T06:36:50;2.92;;;1.40;;
20855;SDS011;10588;49.542;8.444;2022-07-06T06:39:16;2.63;;;1.50;;
20855;SDS011;10588;49.542;8.444;2022-07-06T06:41:42;2.90;;;1.30;;
20855;SDS011;10588;49.542;8.444;2022-07-06T06:44:07;1.98;;;1.30;;
20855;SDS011;10588;49.542;8.444;2022-07-06T06:46:33;2.17;;;1.25;;
20855;SDS011;10588;49.542;8.444;2022-07-06T06:48:59;4.43;;;1.30;;
20855;SDS011;10588;49.542;8.444;2022-07-06T06:51:24;4.80;;;1.00;;
20855;SDS011;10588;49.542;8.444;2022-07-06T06:53:50;2.10;;;1.08;;
20855;SDS011;10588;49.542;8.444;2022-07-06T06:56:16;3.78;;;1.50;;
20855;SDS011;10588;49.542;8.444;2022-07-06T06:58:41;5.03;;;1.50;;
20855;SDS011;10588;49.542;8.444;2022-07-06T07:01:07;4.78;;;1.17;;
20855;SDS011;10588;49.542;8.444;2022-07-06T07:03:33;2.45;;;1.55;;
20855;SDS011;10588;49.542;8.444;2022-07-06T07:05:59;3.45;;;1.10;;
20855;SDS011;10588;49.542;8.444;2022-07-06T07:08:24;2.45;;;1.13;;
20855;SDS011;10588;49.542;8.444;2022-07-06T07:10:50;2.40;;;1.30;;
20855;SDS011;10588;49.542;8.444;2022-07-06T07:13:16;2.35;;;1.00;;
20855;SDS011;10588;49.542;8.444;2022-07-06T07:15:42;1.80;;;1.10;;
20855;SDS011;10588;49.542;8.444;2022-07-06T07:18:07;3.42;;;1.25;;
20855;SDS011;10588;49.542;8.444;2022-07-06T07:20:33;2.65;;;1.17;;
20855;SDS011;10588;49.542;8.444;2022-07-06T07:22:59;2.88;;;1.25;;
20855;SDS011;10588;49.542;8.444;2022-07-06T07:25:25;3.10;;;1.38;;
20855;SDS011;10588;49.542;8.444;2022-07-06T07:27:51;2.15;;;1.13;;
20855;SDS011;10588;49.542;8.444;2022-07-06T07:30:17;4.38;;;1.23;;
20855;SDS011;10588;49.542;8.444;2022-07-06T07:32:42;3.35;;;1.40;;
20855;SDS011;10588;49.542;8.444;2022-07-06T07:35:08;2.85;;;1.40;;
20855;SDS011;10588;49.542;8.444;2022-07-06T07:37:34;3.65;;;1.40;;
20855;SDS011;10588;49.542;8.444;2022-07-06T07:40:00;1.98;;;1.10;;
20855;SDS011;10588;49.542;8.444;2022-07-06T07:42:26;3.47;;;1.17;;
20855;SDS011;10588;49.542;8.444;2022-07-06T07:44:52;3.22;;;1.27;;
20855;SDS011;10588;49.542;8.444;2022-07-06T07:47:17;1.92;;;1.13;;
20855;SDS011;10588;49.542;8.444;2022-07-06T07:49:43;4.15;;;1.35;;
20855;SDS011;10588;49.542;8.444;2022-07-06T07:52:09;2.05;;;1.00;;
20855;SDS011;10588;49.542;8.444;2022-07-06T07:54:35;10.02;;;1.40;;
20855;SDS011;10588;49.542;8.444;2022-07-06T07:57:00;2.63;;;1.20;;
20855;SDS011;10588;49.542;8.444;2022-07-06T07:59:26;2.42;;;0.98;;
20855;SDS011;10588;49.542;8.444;2022-07-06T08:01:52;1.65;;;1.13;;
20855;SDS011;10588;49.542;8.444;2022-07-06T08:04:17;3.10;;;1.40;;
20855;SDS011;10588;49.542;8.444;2022-07-06T08:06:43;2.88;;;1.15;;
20855;SDS011;10588;49.542;8.444;2022-07-06T08:09:09;2.92;;;1.10;;
20855;SDS011;10588;49.542;8.444;2022-07-06T08:11:34;3.55;;;1.20;;
20855;SDS011;10588;49.542;8.444;2022-07-06T08:14:00;2.40;;;1.00;;
20855;SDS011;10588;49.542;8.444;2022-07-06T08:16:27;3.83;;;1.00;;
20855;SDS011;10588;49.542;8.444;2022-07-06T08:18:53;5.03;;;1.10;;
20855;SDS011;10588;49.542;8.444;2022-07-06T08:21:18;3.17;;;1.00;;
20855;SDS011;10588;49.542;8.444;2022-07-06T08:23:44;3.22;;;1.30;;
20855;SDS011;10588;49.542;8.444;2022-07-06T08:26:10;3.78;;;1.10;;
20855;SDS011;10588;49.542;8.444;2022-07-06T08:28:35;1.83;;;0.63;;
20855;SDS011;10588;49.542;8.444;2022-07-06T08:31:01;1.65;;;0.80;;
20855;SDS011;10588;49.542;8.444;2022-07-06T08:33:27;2.08;;;0.80;;
20855;SDS011;10588;49.542;8.444;2022-07-06T08:35:53;3.03;;;0.80;;
20855;SDS011;10588;49.542;8.444;2022-07-06T08:38:18;2.70;;;1.05;;
20855;SDS011;10588;49.542;8.444;2022-07-06T08:40:45;4.35;;;1.20;;
20855;SDS011;10588;49.542;8.444;2022-07-06T08:43:13;3.45;;;1.20;;
20855;SDS011;10588;49.542;8.444;2022-07-06T08:45:40;2.67;;;0.90;;
20855;SDS011;10588;49.542;8.444;2022-07-06T08:48:09;3.05;;;0.90;;
20855;SDS011;10588;49.542;8.444;2022-07-06T08:50:35;2.10;;;0.82;;
20855;SDS011;10588;49.542;8.444;2022-07-06T08:53:02;2.00;;;0.80;;
20855;SDS011;10588;49.542;8.444;2022-07-06T08:55:28;3.05;;;1.20;;
20855;SDS011;10588;49.542;8.444;2022-07-06T08:57:54;2.05;;;1.00;;
20855;SDS011;10588;49.542;8.444;2022-07-06T09:00:21;2.05;;;0.90;;
20855;SDS011;10588;49.542;8.444;2022-07-06T09:02:48;5.15;;;0.98;;
20855;SDS011;10588;49.542;8.444;2022-07-06T09:05:16;4.63;;;0.90;;
20855;SDS011;10588;49.542;8.444;2022-07-06T09:07:42;2.45;;;0.90;;
20855;SDS011;10588;49.542;8.444;2022-07-06T09:10:14;3.30;;;1.02;;
20855;SDS011;10588;49.542;8.444;2022-07-06T09:12:45;2.17;;;0.95;;
20855;SDS011;10588;49.542;8.444;2022-07-06T09:15:11;3.42;;;0.88;;
20855;SDS011;10588;49.542;8.444;2022-07-06T09:17:37;2.03;;;0.80;;
20855;SDS011;10588;49.542;8.444;2022-07-06T09:20:07;3.08;;;1.00;;
20855;SDS011;10588;49.542;8.444;2022-07-06T09:22:34;2.72;;;1.08;;
20855;SDS011;10588;49.542;8.444;2022-07-06T09:25:03;3.85;;;1.38;;
20855;SDS011;10588;49.542;8.444;2022-07-06T09:27:31;2.75;;;1.08;;
20855;SDS011;10588;49.542;8.444;2022-07-06T09:30:02;3.17;;;1.00;;
20855;SDS011;10588;49.542;8.444;2022-07-06T09:32:27;2.35;;;1.02;;
20855;SDS011;10588;49.542;8.444;2022-07-06T09:34:53;1.60;;;1.10;;
20855;SDS011;10588;49.542;8.444;2022-07-06T09:37:20;4.40;;;1.02;;
20855;SDS011;10588;49.542;8.444;2022-07-06T09:39:48;3.67;;;1.00;;
20855;SDS011;10588;49.542;8.444;2022-07-06T09:42:14;4.47;;;0.90;;
20855;SDS011;10588;49.542;8.444;2022-07-06T09:44:40;2.30;;;1.02;;
20855;SDS011;10588;49.542;8.444;2022-07-06T09:47:10;2.53;;;0.90;;
20855;SDS011;10588;49.542;8.444;2022-07-06T09:49:37;1.77;;;0.80;;
20855;SDS011;10588;49.542;8.444;2022-07-06T09:52:04;3.22;;;1.10;;
20855;SDS011;10588;49.542;8.444;2022-07-06T09:54:35;1.10;;;0.88;;
20855;SDS011;10588;49.542;8.444;2022-07-06T09:57:02;1.88;;;0.90;;
20855;SDS011;10588;49.542;8.444;2022-07-06T09:59:29;2.83;;;0.90;;
20855;SDS011;10588;49.542;8.444;2022-07-06T10:01:57;2.88;;;0.80;;
20855;SDS011;10588;49.542;8.444;2022-07-06T10:04:27;4.55;;;1.10;;
20855;SDS011;10588;49.542;8.444;2022-07-06T10:06:54;3.63;;;0.90;;
20855;SDS011;10588;49.542;8.444;2022-07-06T10:09:21;2.03;;;1.15;;
20855;SDS011;10588;49.542;8.444;2022-07-06T10:11:49;1.98;;;1.10;;
20855;SDS011;10588;49.542;8.444;2022-07-06T10:14:17;2.83;;;0.95;;
20855;SDS011;10588;49.542;8.444;2022-07-06T10:16:46;3.83;;;0.90;;
20855;SDS011;10588;49.542;8.444;2022-07-06T10:19:12;5.80;;;1.00;;
20855;SDS011;10588;49.542;8.444;2022-07-06T10:21:39;1.70;;;0.85;;
20855;SDS011;10588;49.542;8.444;2022-07-06T10:24:06;1.77;;;0.80;;
20855;SDS011;10588;49.542;8.444;2022-07-06T10:26:33;1.52;;;0.70;;
20855;SDS011;10588;49.542;8.444;2022-07-06T10:29:00;1.58;;;0.93;;
20855;SDS011;10588;49.542;8.444;2022-07-06T10:31:27;1.98;;;0.88;;
20855;SDS011;10588;49.542;8.444;2022-07-06T10:33:54;1.70;;;0.77;;
20855;SDS011;10588;49.542;8.444;2022-07-06T10:36:25;1.42;;;0.70;;
20855;SDS011;10588;49.542;8.444;2022-07-06T10:38:51;1.67;;;0.70;;
20855;SDS011;10588;49.542;8.444;2022-07-06T10:41:17;1.77;;;0.55;;
20855;SDS011;10588;49.542;8.444;2022-07-06T10:43:45;4.32;;;0.70;;
20855;SDS011;10588;49.542;8.444;2022-07-06T10:46:12;3.47;;;0.90;;
20855;SDS011;10588;49.542;8.444;2022-07-06T10:48:42;0.88;;;0.60;;
20855;SDS011;10588;49.542;8.444;2022-07-06T10:51:12;1.27;;;0.63;;
20855;SDS011;10588;49.542;8.444;2022-07-06T10:54:00;1.20;;;0.70;;
20855;SDS011;10588;49.542;8.444;2022-07-06T10:56:35;2.38;;;0.70;;
20855;SDS011;10588;49.542;8.444;2022-07-06T10:59:22;1.42;;;0.88;;
20855;SDS011;10588;49.542;8.444;2022-07-06T11:04:40;2.53;;;0.68;;
20855;SDS011;10588;49.542;8.444;2022-07-06T11:07:09;3.47;;;0.77;;
20855;SDS011;10588;49.542;8.444;2022-07-06T11:09:53;7.55;;;0.77;;
20855;SDS011;10588;49.542;8.444;2022-07-06T11:12:21;3.28;;;0.95;;
20855;SDS011;10588;49.542;8.444;2022-07-06T11:14:48;1.00;;;0.80;;
20855;SDS011;10588;49.542;8.444;2022-07-06T11:17:14;1.30;;;0.68;;
20855;SDS011;10588;49.542;8.444;2022-07-06T11:19:50;2.25;;;0.88;;
20855;SDS011;10588;49.542;8.444;2022-07-06T11:22:23;3.05;;;0.98;;
20855;SDS011;10588;49.542;8.444;2022-07-06T11:24:51;2.33;;;0.95;;
20855;SDS011;10588;49.542;8.444;2022-07-06T11:27:17;4.15;;;1.00;;
20855;SDS011;10588;49.542;8.444;2022-07-06T11:29:43;1.63;;;0.98;;
20855;SDS011;10588;49.542;8.444;2022-07-06T11:32:10;2.65;;;1.25;;
20855;SDS011;10588;49.542;8.444;2022-07-06T11:34:39;4.63;;;0.95;;
20855;SDS011;10588;49.542;8.444;2022-07-06T11:37:09;3.97;;;1.23;;
20855;SDS011;10588;49.542;8.444;2022-07-06T11:39:37;2.35;;;1.20;;
20855;SDS011;10588;49.542;8.444;2022-07-06T11:42:07;1.65;;;1.00;;
20855;SDS011;10588;49.542;8.444;2022-07-06T11:44:38;2.28;;;1.30;;
20855;SDS011;10588;49.542;8.444;2022-07-06T11:47:05;1.77;;;1.27;;
20855;SDS011;10588;49.542;8.444;2022-07-06T11:49:33;1.42;;;1.13;;
20855;SDS011;10588;49.542;8.444;2022-07-06T11:52:00;1.30;;;1.05;;
20855;SDS011;10588;49.542;8.444;2022-07-06T11:54:31;1.13;;;1.02;;
20855;SDS011;10588;49.542;8.444;2022-07-06T11:56:58;1.33;;;1.02;;
20855;SDS011;10588;49.542;8.444;2022-07-06T11:59:25;1.42;;;1.08;;
20855;SDS011;10588;49.542;8.444;2022-07-06T12:02:04;1.17;;;1.08;;
20855;SDS011;10588;49.542;8.444;2022-07-06T12:04:35;1.83;;;1.15;;
20855;SDS011;10588;49.542;8.444;2022-07-06T12:07:07;4.10;;;1.50;;
20855;SDS011;10588;49.542;8.444;2022-07-06T12:09:38;2.25;;;1.60;;
20855;SDS011;10588;49.542;8.444;2022-07-06T12:12:05;2.72;;;1.20;;
20855;SDS011;10588;49.542;8.444;2022-07-06T12:14:34;3.85;;;1.40;;
20855;SDS011;10588;49.542;8.444;2022-07-06T12:17:07;3.38;;;1.17;;
20855;SDS011;10588;49.542;8.444;2022-07-06T12:19:35;2.60;;;1.00;;
20855;SDS011;10588;49.542;8.444;2022-07-06T12:22:01;2.95;;;0.90;;
20855;SDS011;10588;49.542;8.444;2022-07-06T12:24:28;1.58;;;1.10;;
20855;SDS011;10588;49.542;8.444;2022-07-06T12:26:57;6.22;;;1.40;;
20855;SDS011;10588;49.542;8.444;2022-07-06T12:29:23;4.60;;;1.10;;
20855;SDS011;10588;49.542;8.444;2022-07-06T12:31:50;1.02;;;0.90;;
20855;SDS011;10588;49.542;8.444;2022-07-06T12:34:21;1.40;;;0.88;;
20855;SDS011;10588;49.542;8.444;2022-07-06T12:36:52;1.50;;;0.90;;
20855;SDS011;10588;49.542;8.444;2022-07-06T12:39:20;2.22;;;1.08;;
20855;SDS011;10588;49.542;8.444;2022-07-06T12:42:02;1.38;;;0.85;;
20855;SDS011;10588;49.542;8.444;2022-07-06T12:44:29;1.98;;;0.80;;
20855;SDS011;10588;49.542;8.444;2022-07-06T12:47:02;3.45;;;1.10;;
20855;SDS011;10588;49.542;8.444;2022-07-06T12:49:29;0.90;;;0.63;;
20855;SDS011;10588;49.542;8.444;2022-07-06T12:54:27;2.55;;;0.82;;
20855;SDS011;10588;49.542;8.444;2022-07-06T12:56:55;1.15;;;0.80;;
20855;SDS011;10588;49.542;8.444;2022-07-06T12:59:27;1.00;;;0.88;;
20855;SDS011;10588;49.542;8.444;2022-07-06T13:01:54;1.50;;;0.73;;
20855;SDS011;10588;49.542;8.444;2022-07-06T13:04:26;2.25;;;0.73;;
20855;SDS011;10588;49.542;8.444;2022-07-06T13:06:54;2.42;;;1.13;;
20855;SDS011;10588;49.542;8.444;2022-07-06T13:09:20;1.65;;;0.52;;
20855;SDS011;10588;49.542;8.444;2022-07-06T13:11:47;1.08;;;0.90;;
20855;SDS011;10588;49.542;8.444;2022-07-06T13:14:16;2.50;;;0.80;;
20855;SDS011;10588;49.542;8.444;2022-07-06T13:16:43;1.05;;;0.77;;
20855;SDS011;10588;49.542;8.444;2022-07-06T13:19:10;2.90;;;0.60;;
20855;SDS011;10588;49.542;8.444;2022-07-06T13:21:35;6.18;;;0.60;;
20855;SDS011;10588;49.542;8.444;2022-07-06T13:24:02;2.33;;;0.65;;
20855;SDS011;10588;49.542;8.444;2022-07-06T13:26:28;3.08;;;0.60;;
20855;SDS011;10588;49.542;8.444;2022-07-06T13:28:58;1.33;;;0.60;;
20855;SDS011;10588;49.542;8.444;2022-07-06T13:31:28;4.38;;;0.75;;
20855;SDS011;10588;49.542;8.444;2022-07-06T13:33:54;2.08;;;0.90;;
20855;SDS011;10588;49.542;8.444;2022-07-06T13:36:20;1.27;;;0.60;;
20855;SDS011;10588;49.542;8.444;2022-07-06T13:38:46;1.33;;;0.60;;
20855;SDS011;10588;49.542;8.444;2022-07-06T13:41:12;1.90;;;0.60;;
20855;SDS011;10588;49.542;8.444;2022-07-06T13:43:37;1.67;;;0.60;;
20855;SDS011;10588;49.542;8.444;2022-07-06T13:46:03;2.35;;;0.60;;
20855;SDS011;10588;49.542;8.444;2022-07-06T13:48:30;1.13;;;0.55;;
20855;SDS011;10588;49.542;8.444;2022-07-06T13:50:56;1.40;;;0.50;;
20855;SDS011;10588;49.542;8.444;2022-07-06T13:53:21;2.40;;;0.70;;
20855;SDS011;10588;49.542;8.444;2022-07-06T13:55:47;5.30;;;0.77;;
20855;SDS011;10588;49.542;8.444;2022-07-06T13:58:12;1.90;;;0.45;;
20855;SDS011;10588;49.542;8.444;2022-07-06T14:00:38;4.07;;;0.60;;
20855;SDS011;10588;49.542;8.444;2022-07-06T14:03:04;0.80;;;0.45;;
20855;SDS011;10588;49.542;8.444;2022-07-06T14:05:29;0.85;;;0.40;;
20855;SDS011;10588;49.542;8.444;2022-07-06T14:07:55;3.95;;;0.65;;
20855;SDS011;10588;49.542;8.444;2022-07-06T14:10:21;2.35;;;0.70;;
20855;SDS011;10588;49.542;8.444;2022-07-06T14:12:47;2.83;;;0.60;;
20855;SDS011;10588;49.542;8.444;2022-07-06T14:15:13;2.00;;;0.85;;
20855;SDS011;10588;49.542;8.444;2022-07-06T14:17:39;1.25;;;0.40;;
20855;SDS011;10588;49.542;8.444;2022-07-06T14:20:05;0.70;;;0.50;;
20855;SDS011;10588;49.542;8.444;2022-07-06T14:22:31;2.13;;;0.40;;
20855;SDS011;10588;49.542;8.444;2022-07-06T14:24:57;2.40;;;0.52;;
20855;SDS011;10588;49.542;8.444;2022-07-06T14:27:23;2.80;;;0.60;;
20855;SDS011;10588;49.542;8.444;2022-07-06T14:29:48;1.55;;;0.55;;
20855;SDS011;10588;49.542;8.444;2022-07-06T14:32:14;1.52;;;0.73;;
20855;SDS011;10588;49.542;8.444;2022-07-06T14:34:40;0.88;;;0.43;;
20855;SDS011;10588;49.542;8.444;2022-07-06T14:37:05;2.00;;;0.50;;
20855;SDS011;10588;49.542;8.444;2022-07-06T14:39:31;1.02;;;0.60;;
20855;SDS011;10588;49.542;8.444;2022-07-06T14:41:56;1.25;;;0.60;;
20855;SDS011;10588;49.542;8.444;2022-07-06T14:44:22;1.77;;;0.60;;
20855;SDS011;10588;49.542;8.444;2022-07-06T14:46:47;1.33;;;0.40;;
20855;SDS011;10588;49.542;8.444;2022-07-06T14:49:13;2.13;;;0.65;;
20855;SDS011;10588;49.542;8.444;2022-07-06T14:51:39;1.38;;;0.50;;